sensor_id;sensor_type;location;lat;lon;timestamp;P1;durP1;ratioP1;P2;durP2;ratioP2
40373;SDS011;26079;45.958;12.492;2023-12-29T00:00:32;55.17;;;43.00;;
40373;SDS011;26079;45.958;12.492;2023-12-29T00:02:58;49.25;;;42.00;;
40373;SDS011;26079;45.958;12.492;2023-12-29T00:05:24;49.75;;;41.63;;
40373;SDS011;26079;45.958;12.492;2023-12-29T00:07:50;54.45;;;42.30;;
40373;SDS011;26079;45.958;12.492;2023-12-29T00:10:16;57.35;;;45.55;;
40373;SDS011;26079;45.958;12.492;2023-12-29T00:12:41;53.35;;;43.53;;
40373;SDS011;26079;45.958;12.492;2023-12-29T00:15:07;54.97;;;44.70;;
40373;SDS011;26079;45.958;12.492;2023-12-29T00:17:33;54.03;;;44.42;;
40373;SDS011;26079;45.958;12.492;2023-12-29T00:20:03;55.13;;;43.65;;
40373;SDS011;26079;45.958;12.492;2023-12-29T00:22:29;57.55;;;41.63;;
40373;SDS011;26079;45.958;12.492;2023-12-29T00:24:55;53.13;;;40.65;;
40373;SDS011;26079;45.958;12.492;2023-12-29T00:27:21;49.83;;;42.85;;
40373;SDS011;26079;45.958;12.492;2023-12-29T00:29:47;52.40;;;40.67;;
40373;SDS011;26079;45.958;12.492;2023-12-29T00:32:13;51.45;;;42.30;;
40373;SDS011;26079;45.958;12.492;2023-12-29T00:34:38;54.22;;;42.35;;
40373;SDS011;26079;45.958;12.492;2023-12-29T00:37:04;49.08;;;41.85;;
40373;SDS011;26079;45.958;12.492;2023-12-29T00:39:31;51.67;;;41.33;;
40373;SDS011;26079;45.958;12.492;2023-12-29T00:42:03;55.78;;;43.47;;
40373;SDS011;26079;45.958;12.492;2023-12-29T00:44:29;52.55;;;42.08;;
40373;SDS011;26079;45.958;12.492;2023-12-29T00:46:55;50.40;;;42.13;;
40373;SDS011;26079;45.958;12.492;2023-12-29T00:49:20;46.22;;;40.95;;
40373;SDS011;26079;45.958;12.492;2023-12-29T00:51:49;51.13;;;42.15;;
40373;SDS011;26079;45.958;12.492;2023-12-29T00:54:15;57.42;;;43.83;;
40373;SDS011;26079;45.958;12.492;2023-12-29T00:56:41;51.53;;;41.22;;
40373;SDS011;26079;45.958;12.492;2023-12-29T00:59:06;52.90;;;42.90;;
40373;SDS011;26079;45.958;12.492;2023-12-29T01:01:35;49.53;;;41.85;;
40373;SDS011;26079;45.958;12.492;2023-12-29T01:04:01;45.40;;;39.47;;
40373;SDS011;26079;45.958;12.492;2023-12-29T01:06:27;48.30;;;39.95;;
40373;SDS011;26079;45.958;12.492;2023-12-29T01:08:53;48.88;;;40.38;;
40373;SDS011;26079;45.958;12.492;2023-12-29T01:11:19;51.38;;;39.50;;
40373;SDS011;26079;45.958;12.492;2023-12-29T01:13:44;51.22;;;40.03;;
40373;SDS011;26079;45.958;12.492;2023-12-29T01:16:10;49.75;;;40.70;;
40373;SDS011;26079;45.958;12.492;2023-12-29T01:18:36;48.92;;;38.17;;
40373;SDS011;26079;45.958;12.492;2023-12-29T01:21:01;54.95;;;40.00;;
40373;SDS011;26079;45.958;12.492;2023-12-29T01:23:27;47.92;;;40.10;;
40373;SDS011;26079;45.958;12.492;2023-12-29T01:25:53;48.45;;;39.42;;
40373;SDS011;26079;45.958;12.492;2023-12-29T01:28:19;48.20;;;38.95;;
40373;SDS011;26079;45.958;12.492;2023-12-29T01:30:44;48.47;;;38.63;;
40373;SDS011;26079;45.958;12.492;2023-12-29T01:33:10;44.53;;;38.53;;
40373;SDS011;26079;45.958;12.492;2023-12-29T01:35:36;45.58;;;39.33;;
40373;SDS011;26079;45.958;12.492;2023-12-29T01:38:04;54.97;;;40.17;;
40373;SDS011;26079;45.958;12.492;2023-12-29T01:40:29;45.42;;;38.72;;
40373;SDS011;26079;45.958;12.492;2023-12-29T01:42:55;45.05;;;37.40;;
40373;SDS011;26079;45.958;12.492;2023-12-29T01:45:22;50.15;;;41.33;;
40373;SDS011;26079;45.958;12.492;2023-12-29T01:47:49;49.08;;;38.28;;
40373;SDS011;26079;45.958;12.492;2023-12-29T01:50:19;52.00;;;40.55;;
40373;SDS011;26079;45.958;12.492;2023-12-29T01:52:47;48.65;;;39.95;;
40373;SDS011;26079;45.958;12.492;2023-12-29T01:55:15;51.95;;;42.13;;
40373;SDS011;26079;45.958;12.492;2023-12-29T01:57:44;48.42;;;39.10;;
40373;SDS011;26079;45.958;12.492;2023-12-29T02:00:11;42.65;;;36.08;;
40373;SDS011;26079;45.958;12.492;2023-12-29T02:02:37;48.72;;;37.90;;
40373;SDS011;26079;45.958;12.492;2023-12-29T02:05:04;43.25;;;35.92;;
40373;SDS011;26079;45.958;12.492;2023-12-29T02:07:31;41.30;;;35.90;;
40373;SDS011;26079;45.958;12.492;2023-12-29T02:09:58;41.28;;;34.75;;
40373;SDS011;26079;45.958;12.492;2023-12-29T02:12:25;39.88;;;33.55;;
40373;SDS011;26079;45.958;12.492;2023-12-29T02:14:51;39.63;;;34.20;;
40373;SDS011;26079;45.958;12.492;2023-12-29T02:19:46;42.38;;;36.50;;
40373;SDS011;26079;45.958;12.492;2023-12-29T02:22:14;41.78;;;35.92;;
40373;SDS011;26079;45.958;12.492;2023-12-29T02:24:43;41.13;;;34.25;;
40373;SDS011;26079;45.958;12.492;2023-12-29T02:30:09;44.63;;;36.00;;
40373;SDS011;26079;45.958;12.492;2023-12-29T02:32:54;40.08;;;35.47;;
40373;SDS011;26079;45.958;12.492;2023-12-29T02:35:26;38.10;;;33.70;;
40373;SDS011;26079;45.958;12.492;2023-12-29T02:37:56;43.17;;;34.70;;
40373;SDS011;26079;45.958;12.492;2023-12-29T02:40:24;40.58;;;35.13;;
40373;SDS011;26079;45.958;12.492;2023-12-29T02:42:50;41.33;;;35.22;;
40373;SDS011;26079;45.958;12.492;2023-12-29T02:45:16;43.67;;;36.72;;
40373;SDS011;26079;45.958;12.492;2023-12-29T02:47:43;39.70;;;34.60;;
40373;SDS011;26079;45.958;12.492;2023-12-29T02:50:09;38.67;;;33.83;;
40373;SDS011;26079;45.958;12.492;2023-12-29T02:52:35;43.63;;;34.85;;
40373;SDS011;26079;45.958;12.492;2023-12-29T02:55:01;43.75;;;34.60;;
40373;SDS011;26079;45.958;12.492;2023-12-29T02:57:27;39.70;;;31.65;;
40373;SDS011;26079;45.958;12.492;2023-12-29T02:59:53;37.22;;;33.03;;
40373;SDS011;26079;45.958;12.492;2023-12-29T03:02:19;46.78;;;34.55;;
40373;SDS011;26079;45.958;12.492;2023-12-29T03:04:45;41.08;;;33.60;;
40373;SDS011;26079;45.958;12.492;2023-12-29T03:07:11;43.60;;;33.10;;
40373;SDS011;26079;45.958;12.492;2023-12-29T03:09:37;36.40;;;30.38;;
40373;SDS011;26079;45.958;12.492;2023-12-29T03:12:02;35.03;;;28.85;;
40373;SDS011;26079;45.958;12.492;2023-12-29T03:14:28;30.83;;;27.50;;
40373;SDS011;26079;45.958;12.492;2023-12-29T03:16:54;29.33;;;26.33;;
40373;SDS011;26079;45.958;12.492;2023-12-29T03:19:20;26.85;;;23.98;;
40373;SDS011;26079;45.958;12.492;2023-12-29T03:21:46;25.70;;;23.05;;
40373;SDS011;26079;45.958;12.492;2023-12-29T03:24:11;24.55;;;22.05;;
40373;SDS011;26079;45.958;12.492;2023-12-29T03:26:37;22.48;;;20.08;;
40373;SDS011;26079;45.958;12.492;2023-12-29T03:29:03;23.60;;;20.48;;
40373;SDS011;26079;45.958;12.492;2023-12-29T03:31:28;23.63;;;21.13;;
40373;SDS011;26079;45.958;12.492;2023-12-29T03:33:54;22.13;;;19.83;;
40373;SDS011;26079;45.958;12.492;2023-12-29T03:36:19;23.70;;;19.65;;
40373;SDS011;26079;45.958;12.492;2023-12-29T03:38:45;22.63;;;20.30;;
40373;SDS011;26079;45.958;12.492;2023-12-29T03:41:11;22.50;;;20.35;;
40373;SDS011;26079;45.958;12.492;2023-12-29T03:43:36;23.55;;;21.30;;
40373;SDS011;26079;45.958;12.492;2023-12-29T03:46:02;25.33;;;22.70;;
40373;SDS011;26079;45.958;12.492;2023-12-29T03:48:28;22.95;;;20.65;;
40373;SDS011;26079;45.958;12.492;2023-12-29T03:50:53;23.70;;;21.40;;
40373;SDS011;26079;45.958;12.492;2023-12-29T03:53:19;22.98;;;20.58;;
40373;SDS011;26079;45.958;12.492;2023-12-29T03:55:45;24.73;;;21.45;;
40373;SDS011;26079;45.958;12.492;2023-12-29T03:58:10;62.47;;;40.92;;
40373;SDS011;26079;45.958;12.492;2023-12-29T04:00:36;50.55;;;35.20;;
40373;SDS011;26079;45.958;12.492;2023-12-29T04:03:03;57.67;;;41.17;;
40373;SDS011;26079;45.958;12.492;2023-12-29T04:05:29;52.17;;;35.58;;
40373;SDS011;26079;45.958;12.492;2023-12-29T04:07:54;28.83;;;23.98;;
40373;SDS011;26079;45.958;12.492;2023-12-29T04:10:20;24.35;;;21.25;;
40373;SDS011;26079;45.958;12.492;2023-12-29T04:12:46;22.20;;;19.90;;
40373;SDS011;26079;45.958;12.492;2023-12-29T04:15:11;21.92;;;19.63;;
40373;SDS011;26079;45.958;12.492;2023-12-29T04:17:37;23.73;;;19.63;;
40373;SDS011;26079;45.958;12.492;2023-12-29T04:20:03;22.42;;;19.85;;
40373;SDS011;26079;45.958;12.492;2023-12-29T04:22:29;22.80;;;20.25;;
40373;SDS011;26079;45.958;12.492;2023-12-29T04:24:55;25.15;;;21.95;;
40373;SDS011;26079;45.958;12.492;2023-12-29T04:27:21;28.30;;;25.23;;
40373;SDS011;26079;45.958;12.492;2023-12-29T04:29:47;30.13;;;24.42;;
40373;SDS011;26079;45.958;12.492;2023-12-29T04:32:14;25.80;;;21.67;;
40373;SDS011;26079;45.958;12.492;2023-12-29T04:34:39;28.38;;;22.95;;
40373;SDS011;26079;45.958;12.492;2023-12-29T04:37:05;23.67;;;20.52;;
40373;SDS011;26079;45.958;12.492;2023-12-29T04:39:31;22.25;;;18.42;;
40373;SDS011;26079;45.958;12.492;2023-12-29T04:41:56;19.88;;;17.60;;
40373;SDS011;26079;45.958;12.492;2023-12-29T04:44:22;19.58;;;17.48;;
40373;SDS011;26079;45.958;12.492;2023-12-29T04:46:47;24.33;;;20.15;;
40373;SDS011;26079;45.958;12.492;2023-12-29T04:49:13;22.95;;;18.65;;
40373;SDS011;26079;45.958;12.492;2023-12-29T04:51:39;19.90;;;16.90;;
40373;SDS011;26079;45.958;12.492;2023-12-29T04:54:04;22.30;;;18.33;;
40373;SDS011;26079;45.958;12.492;2023-12-29T04:56:30;18.60;;;16.77;;
40373;SDS011;26079;45.958;12.492;2023-12-29T04:58:56;18.75;;;15.73;;
40373;SDS011;26079;45.958;12.492;2023-12-29T05:01:21;18.60;;;15.73;;
40373;SDS011;26079;45.958;12.492;2023-12-29T05:03:47;21.92;;;17.67;;
40373;SDS011;26079;45.958;12.492;2023-12-29T05:06:13;20.15;;;16.50;;
40373;SDS011;26079;45.958;12.492;2023-12-29T05:08:38;20.10;;;16.83;;
40373;SDS011;26079;45.958;12.492;2023-12-29T05:11:04;19.35;;;17.20;;
40373;SDS011;26079;45.958;12.492;2023-12-29T05:13:29;23.35;;;19.13;;
40373;SDS011;26079;45.958;12.492;2023-12-29T05:15:55;20.05;;;17.90;;
40373;SDS011;26079;45.958;12.492;2023-12-29T05:18:21;26.05;;;18.65;;
40373;SDS011;26079;45.958;12.492;2023-12-29T05:20:46;22.50;;;19.95;;
40373;SDS011;26079;45.958;12.492;2023-12-29T05:23:12;21.70;;;19.45;;
40373;SDS011;26079;45.958;12.492;2023-12-29T05:25:38;23.08;;;20.17;;
40373;SDS011;26079;45.958;12.492;2023-12-29T05:28:04;22.90;;;20.55;;
40373;SDS011;26079;45.958;12.492;2023-12-29T05:30:30;25.95;;;19.92;;
40373;SDS011;26079;45.958;12.492;2023-12-29T05:32:57;23.90;;;19.83;;
40373;SDS011;26079;45.958;12.492;2023-12-29T05:35:22;24.25;;;20.42;;
40373;SDS011;26079;45.958;12.492;2023-12-29T05:37:48;21.60;;;19.30;;
40373;SDS011;26079;45.958;12.492;2023-12-29T05:40:15;21.63;;;19.23;;
40373;SDS011;26079;45.958;12.492;2023-12-29T05:42:41;22.58;;;19.00;;
40373;SDS011;26079;45.958;12.492;2023-12-29T05:45:06;21.63;;;18.20;;
40373;SDS011;26079;45.958;12.492;2023-12-29T05:47:32;22.02;;;18.98;;
40373;SDS011;26079;45.958;12.492;2023-12-29T05:49:58;18.42;;;16.45;;
40373;SDS011;26079;45.958;12.492;2023-12-29T05:52:24;22.42;;;18.55;;
40373;SDS011;26079;45.958;12.492;2023-12-29T05:54:50;20.15;;;17.15;;
40373;SDS011;26079;45.958;12.492;2023-12-29T05:57:15;17.92;;;15.65;;
40373;SDS011;26079;45.958;12.492;2023-12-29T05:59:41;22.77;;;18.35;;
40373;SDS011;26079;45.958;12.492;2023-12-29T06:02:07;19.73;;;16.77;;
40373;SDS011;26079;45.958;12.492;2023-12-29T06:04:32;21.48;;;17.55;;
40373;SDS011;26079;45.958;12.492;2023-12-29T06:06:58;19.55;;;16.15;;
40373;SDS011;26079;45.958;12.492;2023-12-29T06:09:24;18.92;;;16.85;;
40373;SDS011;26079;45.958;12.492;2023-12-29T06:11:49;21.60;;;18.30;;
40373;SDS011;26079;45.958;12.492;2023-12-29T06:14:15;24.55;;;17.20;;
40373;SDS011;26079;45.958;12.492;2023-12-29T06:16:41;21.63;;;18.30;;
40373;SDS011;26079;45.958;12.492;2023-12-29T06:19:07;21.42;;;17.98;;
40373;SDS011;26079;45.958;12.492;2023-12-29T06:21:39;20.30;;;18.30;;
40373;SDS011;26079;45.958;12.492;2023-12-29T06:24:09;19.17;;;17.17;;
40373;SDS011;26079;45.958;12.492;2023-12-29T06:26:36;20.15;;;17.80;;
40373;SDS011;26079;45.958;12.492;2023-12-29T06:29:07;25.00;;;21.38;;
40373;SDS011;26079;45.958;12.492;2023-12-29T06:31:33;25.33;;;19.83;;
40373;SDS011;26079;45.958;12.492;2023-12-29T06:33:59;22.42;;;18.50;;
40373;SDS011;26079;45.958;12.492;2023-12-29T06:36:25;20.65;;;16.65;;
40373;SDS011;26079;45.958;12.492;2023-12-29T06:38:51;21.05;;;18.83;;
40373;SDS011;26079;45.958;12.492;2023-12-29T06:41:18;21.35;;;17.30;;
40373;SDS011;26079;45.958;12.492;2023-12-29T06:43:44;19.17;;;17.27;;
40373;SDS011;26079;45.958;12.492;2023-12-29T06:46:10;20.00;;;16.95;;
40373;SDS011;26079;45.958;12.492;2023-12-29T06:48:39;19.23;;;16.17;;
40373;SDS011;26079;45.958;12.492;2023-12-29T06:51:05;25.73;;;20.10;;
40373;SDS011;26079;45.958;12.492;2023-12-29T06:53:31;30.90;;;25.73;;
40373;SDS011;26079;45.958;12.492;2023-12-29T06:55:57;31.83;;;22.73;;
40373;SDS011;26079;45.958;12.492;2023-12-29T06:58:22;31.27;;;24.50;;
40373;SDS011;26079;45.958;12.492;2023-12-29T07:00:48;25.30;;;20.40;;
40373;SDS011;26079;45.958;12.492;2023-12-29T07:03:14;28.55;;;21.48;;
40373;SDS011;26079;45.958;12.492;2023-12-29T07:05:40;30.30;;;22.00;;
40373;SDS011;26079;45.958;12.492;2023-12-29T07:08:06;23.75;;;21.33;;
40373;SDS011;26079;45.958;12.492;2023-12-29T07:10:31;20.55;;;18.40;;
40373;SDS011;26079;45.958;12.492;2023-12-29T07:12:57;28.20;;;19.77;;
40373;SDS011;26079;45.958;12.492;2023-12-29T07:15:23;28.00;;;19.83;;
40373;SDS011;26079;45.958;12.492;2023-12-29T07:17:48;22.90;;;19.52;;
40373;SDS011;26079;45.958;12.492;2023-12-29T07:20:15;23.02;;;20.60;;
40373;SDS011;26079;45.958;12.492;2023-12-29T07:22:41;32.53;;;24.05;;
40373;SDS011;26079;45.958;12.492;2023-12-29T07:25:07;28.40;;;22.02;;
40373;SDS011;26079;45.958;12.492;2023-12-29T07:27:34;25.85;;;20.30;;
40373;SDS011;26079;45.958;12.492;2023-12-29T07:30:00;36.10;;;25.13;;
40373;SDS011;26079;45.958;12.492;2023-12-29T07:32:25;36.25;;;27.10;;
40373;SDS011;26079;45.958;12.492;2023-12-29T07:34:51;31.27;;;24.25;;
40373;SDS011;26079;45.958;12.492;2023-12-29T07:37:16;29.33;;;20.40;;
40373;SDS011;26079;45.958;12.492;2023-12-29T07:39:42;25.65;;;19.08;;
40373;SDS011;26079;45.958;12.492;2023-12-29T07:42:08;26.33;;;18.75;;
40373;SDS011;26079;45.958;12.492;2023-12-29T07:44:34;24.40;;;19.33;;
40373;SDS011;26079;45.958;12.492;2023-12-29T07:46:59;27.77;;;22.67;;
40373;SDS011;26079;45.958;12.492;2023-12-29T07:49:25;30.77;;;25.63;;
40373;SDS011;26079;45.958;12.492;2023-12-29T07:51:51;31.23;;;24.23;;
40373;SDS011;26079;45.958;12.492;2023-12-29T07:54:17;28.50;;;23.33;;
40373;SDS011;26079;45.958;12.492;2023-12-29T07:56:43;27.92;;;24.27;;
40373;SDS011;26079;45.958;12.492;2023-12-29T07:59:08;32.70;;;28.77;;
40373;SDS011;26079;45.958;12.492;2023-12-29T08:01:34;40.67;;;33.22;;
40373;SDS011;26079;45.958;12.492;2023-12-29T08:04:02;33.42;;;29.77;;
40373;SDS011;26079;45.958;12.492;2023-12-29T08:06:28;32.05;;;26.10;;
40373;SDS011;26079;45.958;12.492;2023-12-29T08:08:54;31.08;;;25.13;;
40373;SDS011;26079;45.958;12.492;2023-12-29T08:11:19;30.80;;;24.75;;
40373;SDS011;26079;45.958;12.492;2023-12-29T08:13:46;33.38;;;28.52;;
40373;SDS011;26079;45.958;12.492;2023-12-29T08:16:12;29.15;;;24.98;;
40373;SDS011;26079;45.958;12.492;2023-12-29T08:18:38;38.67;;;24.15;;
40373;SDS011;26079;45.958;12.492;2023-12-29T08:21:04;28.20;;;22.17;;
40373;SDS011;26079;45.958;12.492;2023-12-29T08:23:30;33.03;;;25.48;;
40373;SDS011;26079;45.958;12.492;2023-12-29T08:25:56;30.42;;;23.73;;
40373;SDS011;26079;45.958;12.492;2023-12-29T08:28:23;26.45;;;20.40;;
40373;SDS011;26079;45.958;12.492;2023-12-29T08:30:49;32.35;;;22.55;;
40373;SDS011;26079;45.958;12.492;2023-12-29T08:33:14;28.05;;;24.98;;
40373;SDS011;26079;45.958;12.492;2023-12-29T08:35:40;36.50;;;27.15;;
40373;SDS011;26079;45.958;12.492;2023-12-29T08:38:06;33.63;;;27.67;;
40373;SDS011;26079;45.958;12.492;2023-12-29T08:40:32;35.72;;;28.27;;
40373;SDS011;26079;45.958;12.492;2023-12-29T08:42:58;34.88;;;27.52;;
40373;SDS011;26079;45.958;12.492;2023-12-29T08:45:23;33.78;;;27.05;;
40373;SDS011;26079;45.958;12.492;2023-12-29T08:47:49;35.53;;;28.70;;
40373;SDS011;26079;45.958;12.492;2023-12-29T08:50:15;34.90;;;27.23;;
40373;SDS011;26079;45.958;12.492;2023-12-29T08:52:41;40.20;;;29.10;;
40373;SDS011;26079;45.958;12.492;2023-12-29T08:55:07;37.20;;;26.95;;
40373;SDS011;26079;45.958;12.492;2023-12-29T08:57:34;29.83;;;25.13;;
40373;SDS011;26079;45.958;12.492;2023-12-29T09:00:00;29.02;;;23.60;;
40373;SDS011;26079;45.958;12.492;2023-12-29T09:02:26;26.73;;;22.55;;
40373;SDS011;26079;45.958;12.492;2023-12-29T09:04:51;31.85;;;23.23;;
40373;SDS011;26079;45.958;12.492;2023-12-29T09:07:17;26.58;;;22.75;;
40373;SDS011;26079;45.958;12.492;2023-12-29T09:09:43;30.33;;;23.92;;
40373;SDS011;26079;45.958;12.492;2023-12-29T09:12:08;24.38;;;20.90;;
40373;SDS011;26079;45.958;12.492;2023-12-29T09:14:34;21.67;;;19.38;;
40373;SDS011;26079;45.958;12.492;2023-12-29T09:17:00;27.35;;;19.63;;
40373;SDS011;26079;45.958;12.492;2023-12-29T09:19:26;27.73;;;19.88;;
40373;SDS011;26079;45.958;12.492;2023-12-29T09:21:52;26.45;;;21.75;;
40373;SDS011;26079;45.958;12.492;2023-12-29T09:24:18;26.60;;;21.48;;
40373;SDS011;26079;45.958;12.492;2023-12-29T09:26:43;28.02;;;23.17;;
40373;SDS011;26079;45.958;12.492;2023-12-29T09:29:09;27.60;;;22.95;;
40373;SDS011;26079;45.958;12.492;2023-12-29T09:31:35;24.40;;;21.70;;
40373;SDS011;26079;45.958;12.492;2023-12-29T09:34:01;31.95;;;22.67;;
40373;SDS011;26079;45.958;12.492;2023-12-29T09:36:27;24.65;;;21.20;;
40373;SDS011;26079;45.958;12.492;2023-12-29T09:38:53;25.98;;;21.25;;
40373;SDS011;26079;45.958;12.492;2023-12-29T09:41:19;23.63;;;20.67;;
40373;SDS011;26079;45.958;12.492;2023-12-29T09:43:48;31.33;;;21.98;;
40373;SDS011;26079;45.958;12.492;2023-12-29T09:46:16;24.42;;;21.83;;
40373;SDS011;26079;45.958;12.492;2023-12-29T09:48:45;33.17;;;22.50;;
40373;SDS011;26079;45.958;12.492;2023-12-29T09:51:12;27.83;;;23.42;;
40373;SDS011;26079;45.958;12.492;2023-12-29T09:53:40;25.65;;;22.98;;
40373;SDS011;26079;45.958;12.492;2023-12-29T09:56:07;30.73;;;24.05;;
40373;SDS011;26079;45.958;12.492;2023-12-29T09:58:36;28.77;;;22.10;;
40373;SDS011;26079;45.958;12.492;2023-12-29T10:01:06;37.05;;;24.42;;
40373;SDS011;26079;45.958;12.492;2023-12-29T10:03:32;45.42;;;23.60;;
40373;SDS011;26079;45.958;12.492;2023-12-29T10:06:00;28.35;;;23.50;;
40373;SDS011;26079;45.958;12.492;2023-12-29T10:08:28;30.63;;;25.25;;
40373;SDS011;26079;45.958;12.492;2023-12-29T10:10:57;26.55;;;23.75;;
40373;SDS011;26079;45.958;12.492;2023-12-29T10:13:25;34.00;;;23.77;;
40373;SDS011;26079;45.958;12.492;2023-12-29T10:16:37;28.60;;;24.52;;
40373;SDS011;26079;45.958;12.492;2023-12-29T10:21:28;28.05;;;22.45;;
40373;SDS011;26079;45.958;12.492;2023-12-29T10:26:44;32.47;;;23.65;;
40373;SDS011;26079;45.958;12.492;2023-12-29T10:29:11;33.55;;;25.08;;
40373;SDS011;26079;45.958;12.492;2023-12-29T10:31:37;37.80;;;29.02;;
40373;SDS011;26079;45.958;12.492;2023-12-29T10:34:22;28.90;;;24.73;;
40373;SDS011;26079;45.958;12.492;2023-12-29T10:36:56;28.70;;;24.30;;
40373;SDS011;26079;45.958;12.492;2023-12-29T10:39:23;35.42;;;26.27;;
40373;SDS011;26079;45.958;12.492;2023-12-29T10:41:50;27.52;;;23.90;;
40373;SDS011;26079;45.958;12.492;2023-12-29T10:44:27;26.90;;;24.05;;
40373;SDS011;26079;45.958;12.492;2023-12-29T10:46:52;25.05;;;21.65;;
40373;SDS011;26079;45.958;12.492;2023-12-29T10:49:18;25.63;;;19.85;;
40373;SDS011;26079;45.958;12.492;2023-12-29T10:51:45;26.95;;;22.65;;
40373;SDS011;26079;45.958;12.492;2023-12-29T10:54:18;29.88;;;22.70;;
40373;SDS011;26079;45.958;12.492;2023-12-29T10:56:48;25.30;;;21.30;;
40373;SDS011;26079;45.958;12.492;2023-12-29T10:59:26;23.30;;;20.92;;
40373;SDS011;26079;45.958;12.492;2023-12-29T11:01:52;25.88;;;22.55;;
40373;SDS011;26079;45.958;12.492;2023-12-29T11:04:21;26.88;;;22.70;;
40373;SDS011;26079;45.958;12.492;2023-12-29T11:06:47;33.13;;;24.33;;
40373;SDS011;26079;45.958;12.492;2023-12-29T11:09:31;35.42;;;22.45;;
40373;SDS011;26079;45.958;12.492;2023-12-29T11:12:00;25.45;;;22.25;;
40373;SDS011;26079;45.958;12.492;2023-12-29T11:14:27;25.65;;;22.05;;
40373;SDS011;26079;45.958;12.492;2023-12-29T11:16:56;28.85;;;22.05;;
40373;SDS011;26079;45.958;12.492;2023-12-29T11:19:29;29.23;;;23.85;;
40373;SDS011;26079;45.958;12.492;2023-12-29T11:21:54;25.52;;;22.95;;
40373;SDS011;26079;45.958;12.492;2023-12-29T11:24:21;25.42;;;22.75;;
40373;SDS011;26079;45.958;12.492;2023-12-29T11:26:50;26.73;;;22.40;;
40373;SDS011;26079;45.958;12.492;2023-12-29T11:29:16;28.25;;;20.60;;
40373;SDS011;26079;45.958;12.492;2023-12-29T11:31:42;28.10;;;21.42;;
40373;SDS011;26079;45.958;12.492;2023-12-29T11:37:23;27.08;;;21.33;;
40373;SDS011;26079;45.958;12.492;2023-12-29T11:40:08;27.63;;;20.30;;
40373;SDS011;26079;45.958;12.492;2023-12-29T11:42:43;27.00;;;22.10;;
40373;SDS011;26079;45.958;12.492;2023-12-29T11:45:29;23.75;;;19.63;;
40373;SDS011;26079;45.958;12.492;2023-12-29T11:48:02;22.20;;;18.58;;
40373;SDS011;26079;45.958;12.492;2023-12-29T11:52:58;20.73;;;18.63;;
40373;SDS011;26079;45.958;12.492;2023-12-29T11:55:37;20.25;;;17.95;;
40373;SDS011;26079;45.958;12.492;2023-12-29T11:58:03;19.90;;;17.98;;
40373;SDS011;26079;45.958;12.492;2023-12-29T12:00:48;19.20;;;17.17;;
40373;SDS011;26079;45.958;12.492;2023-12-29T12:05:56;22.73;;;17.65;;
40373;SDS011;26079;45.958;12.492;2023-12-29T12:10:55;17.95;;;16.15;;
40373;SDS011;26079;45.958;12.492;2023-12-29T12:16:10;19.70;;;16.23;;
40373;SDS011;26079;45.958;12.492;2023-12-29T12:19:07;18.60;;;15.02;;
40373;SDS011;26079;45.958;12.492;2023-12-29T12:21:33;20.15;;;18.08;;
40373;SDS011;26079;45.958;12.492;2023-12-29T12:24:01;20.02;;;17.88;;
40373;SDS011;26079;45.958;12.492;2023-12-29T12:26:30;22.13;;;19.63;;
40373;SDS011;26079;45.958;12.492;2023-12-29T12:28:56;22.48;;;20.20;;
40373;SDS011;26079;45.958;12.492;2023-12-29T12:31:23;29.45;;;21.65;;
40373;SDS011;26079;45.958;12.492;2023-12-29T12:36:21;25.80;;;22.75;;
40373;SDS011;26079;45.958;12.492;2023-12-29T12:38:55;25.42;;;22.83;;
40373;SDS011;26079;45.958;12.492;2023-12-29T12:41:22;24.67;;;22.05;;
40373;SDS011;26079;45.958;12.492;2023-12-29T12:46:26;25.02;;;22.25;;
40373;SDS011;26079;45.958;12.492;2023-12-29T12:48:52;26.90;;;22.73;;
40373;SDS011;26079;45.958;12.492;2023-12-29T12:51:20;25.73;;;22.42;;
40373;SDS011;26079;45.958;12.492;2023-12-29T12:53:47;24.52;;;21.90;;
40373;SDS011;26079;45.958;12.492;2023-12-29T12:56:14;23.90;;;21.40;;
40373;SDS011;26079;45.958;12.492;2023-12-29T12:58:40;25.42;;;21.45;;
40373;SDS011;26079;45.958;12.492;2023-12-29T13:01:06;25.23;;;22.58;;
40373;SDS011;26079;45.958;12.492;2023-12-29T13:03:32;23.55;;;21.25;;
40373;SDS011;26079;45.958;12.492;2023-12-29T13:05:59;25.23;;;22.55;;
40373;SDS011;26079;45.958;12.492;2023-12-29T13:08:26;30.20;;;24.83;;
40373;SDS011;26079;45.958;12.492;2023-12-29T13:10:52;30.17;;;22.85;;
40373;SDS011;26079;45.958;12.492;2023-12-29T13:13:18;27.20;;;24.00;;
40373;SDS011;26079;45.958;12.492;2023-12-29T13:15:47;26.73;;;23.88;;
40373;SDS011;26079;45.958;12.492;2023-12-29T13:18:14;29.90;;;25.13;;
40373;SDS011;26079;45.958;12.492;2023-12-29T13:20:47;27.42;;;24.45;;
40373;SDS011;26079;45.958;12.492;2023-12-29T13:23:13;28.23;;;23.77;;
40373;SDS011;26079;45.958;12.492;2023-12-29T13:25:39;25.35;;;22.70;;
40373;SDS011;26079;45.958;12.492;2023-12-29T13:28:08;27.45;;;24.65;;
40373;SDS011;26079;45.958;12.492;2023-12-29T13:30:34;27.67;;;24.63;;
40373;SDS011;26079;45.958;12.492;2023-12-29T13:33:19;28.77;;;25.95;;
40373;SDS011;26079;45.958;12.492;2023-12-29T13:36:10;33.40;;;29.40;;
40373;SDS011;26079;45.958;12.492;2023-12-29T13:38:51;32.67;;;29.17;;
40373;SDS011;26079;45.958;12.492;2023-12-29T13:41:21;33.45;;;28.92;;
40373;SDS011;26079;45.958;12.492;2023-12-29T13:43:50;36.65;;;29.92;;
40373;SDS011;26079;45.958;12.492;2023-12-29T13:46:18;41.53;;;30.48;;
40373;SDS011;26079;45.958;12.492;2023-12-29T13:48:44;33.85;;;29.13;;
40373;SDS011;26079;45.958;12.492;2023-12-29T13:51:15;37.17;;;32.05;;
40373;SDS011;26079;45.958;12.492;2023-12-29T13:53:42;36.95;;;31.42;;
40373;SDS011;26079;45.958;12.492;2023-12-29T13:56:08;36.50;;;31.08;;
40373;SDS011;26079;45.958;12.492;2023-12-29T13:58:35;38.13;;;33.10;;
40373;SDS011;26079;45.958;12.492;2023-12-29T14:01:01;39.13;;;33.20;;
40373;SDS011;26079;45.958;12.492;2023-12-29T14:03:32;43.70;;;37.17;;
40373;SDS011;26079;45.958;12.492;2023-12-29T14:06:11;46.25;;;38.08;;
40373;SDS011;26079;45.958;12.492;2023-12-29T14:08:44;44.72;;;37.45;;
40373;SDS011;26079;45.958;12.492;2023-12-29T14:11:11;45.15;;;39.60;;
40373;SDS011;26079;45.958;12.492;2023-12-29T14:13:43;50.33;;;40.38;;
40373;SDS011;26079;45.958;12.492;2023-12-29T14:16:09;50.75;;;42.10;;
40373;SDS011;26079;45.958;12.492;2023-12-29T14:21:28;57.88;;;45.25;;
40373;SDS011;26079;45.958;12.492;2023-12-29T14:24:16;60.72;;;46.35;;
40373;SDS011;26079;45.958;12.492;2023-12-29T14:29:23;53.58;;;44.45;;
40373;SDS011;26079;45.958;12.492;2023-12-29T14:31:50;59.53;;;45.65;;
40373;SDS011;26079;45.958;12.492;2023-12-29T14:34:17;51.95;;;43.70;;
40373;SDS011;26079;45.958;12.492;2023-12-29T14:36:42;51.88;;;42.60;;
40373;SDS011;26079;45.958;12.492;2023-12-29T14:39:09;47.53;;;42.28;;
40373;SDS011;26079;45.958;12.492;2023-12-29T14:41:35;63.03;;;49.88;;
40373;SDS011;26079;45.958;12.492;2023-12-29T14:44:01;62.42;;;49.38;;